createdAt,value
2022-11-15T00:00:54.774Z,0.00
2022-11-15T00:01:54.775Z,0.00
2022-11-15T00:02:54.734Z,0.00
2022-11-15T00:03:54.876Z,0.00
2022-11-15T00:04:54.708Z,0.00
2022-11-15T00:05:54.697Z,0.00
2022-11-15T00:06:54.722Z,0.00
2022-11-15T00:07:56.152Z,0.00
2022-11-15T00:08:54.680Z,0.00
2022-11-15T00:09:54.678Z,0.00
2022-11-15T00:10:54.634Z,0.00
2022-11-15T00:11:54.644Z,0.00
2022-11-15T00:12:54.629Z,0.00
2022-11-15T00:13:54.639Z,0.00
2022-11-15T00:14:54.607Z,0.00
2022-11-15T00:15:54.584Z,0.00
2022-11-15T00:16:54.560Z,0.00
2022-11-15T00:17:54.554Z,0.00
2022-11-15T00:18:54.535Z,0.00
2022-11-15T00:19:54.534Z,0.00
2022-11-15T00:20:54.537Z,0.00
2022-11-15T00:21:54.503Z,0.00
2022-11-15T00:22:54.493Z,0.00
2022-11-15T00:23:54.493Z,0.00
2022-11-15T00:24:54.474Z,0.00
2022-11-15T00:25:54.463Z,0.00
2022-11-15T00:26:54.478Z,0.00
2022-11-15T00:27:54.455Z,0.00
2022-11-15T00:28:54.445Z,0.00
2022-11-15T00:29:54.446Z,0.00
2022-11-15T00:30:54.425Z,0.00
2022-11-15T00:31:54.393Z,0.00
2022-11-15T00:32:54.434Z,0.00
2022-11-15T00:33:54.395Z,0.00
2022-11-15T00:34:54.374Z,0.00
2022-11-15T00:35:54.350Z,0.00
2022-11-15T00:36:54.326Z,0.00
2022-11-15T00:37:54.324Z,0.00
2022-11-15T00:38:54.345Z,0.00
2022-11-15T00:39:54.292Z,0.00
2022-11-15T00:40:54.288Z,0.00
2022-11-15T00:41:54.273Z,0.00
2022-11-15T00:42:54.262Z,0.00
2022-11-15T00:43:54.252Z,0.00
2022-11-15T00:44:54.327Z,0.00
2022-11-15T00:45:54.227Z,0.00
2022-11-15T00:46:54.210Z,0.00
2022-11-15T00:47:54.206Z,0.00
2022-11-15T00:48:54.243Z,0.00
2022-11-15T00:49:54.213Z,0.00
2022-11-15T00:50:54.165Z,0.00
2022-11-15T00:51:54.162Z,0.00
2022-11-15T00:52:54.157Z,0.00
2022-11-15T00:53:54.142Z,0.00
2022-11-15T00:54:54.138Z,0.00
2022-11-15T00:55:54.165Z,0.00
2022-11-15T00:56:54.116Z,0.00
2022-11-15T00:57:54.095Z,0.00
2022-11-15T00:58:54.103Z,0.00
2022-11-15T00:59:54.073Z,0.00
2022-11-15T01:00:54.139Z,0.00
2022-11-15T01:01:54.104Z,0.00
2022-11-15T01:02:54.032Z,0.00
2022-11-15T01:03:58.620Z,0.00
2022-11-15T01:04:55.016Z,0.00
2022-11-15T01:05:53.993Z,0.00
2022-11-15T01:06:54.055Z,0.00
2022-11-15T01:07:54.014Z,0.00
2022-11-15T01:08:53.966Z,0.00
2022-11-15T01:09:53.958Z,0.00
2022-11-15T01:10:53.943Z,0.00
2022-11-15T01:11:53.923Z,0.00
2022-11-15T01:12:53.967Z,0.00
2022-11-15T01:13:53.902Z,0.00
2022-11-15T01:14:53.894Z,0.00
2022-11-15T01:15:53.882Z,0.00
2022-11-15T01:16:53.881Z,0.00
2022-11-15T01:17:53.869Z,0.00
2022-11-15T01:18:53.887Z,0.00
2022-11-15T01:19:53.833Z,0.00
2022-11-15T01:20:53.826Z,0.00
2022-11-15T01:21:53.812Z,0.00
2022-11-15T01:22:54.125Z,0.00
2022-11-15T01:23:53.791Z,0.00
2022-11-15T01:24:53.802Z,0.00
2022-11-15T01:25:53.762Z,0.00
2022-11-15T01:26:53.762Z,0.00
2022-11-15T01:27:53.757Z,0.00
2022-11-15T01:28:53.740Z,0.00
2022-11-15T01:29:53.723Z,0.00
2022-11-15T01:30:53.753Z,0.00
2022-11-15T01:31:53.703Z,0.00
2022-11-15T01:32:53.694Z,0.00
2022-11-15T01:33:53.673Z,0.00
2022-11-15T01:34:53.683Z,0.00
2022-11-15T01:35:53.651Z,0.00
2022-11-15T01:36:53.664Z,0.00
2022-11-15T01:37:53.632Z,0.00
2022-11-15T01:38:53.613Z,0.00
2022-11-15T01:39:53.611Z,0.00
2022-11-15T01:40:53.594Z,0.00
2022-11-15T01:41:53.593Z,0.00
2022-11-15T01:42:53.668Z,0.00
2022-11-15T01:43:53.562Z,0.00
2022-11-15T01:44:53.542Z,0.00
2022-11-15T01:45:53.536Z,0.00
2022-11-15T01:46:53.594Z,0.00
2022-11-15T01:47:53.561Z,0.00
2022-11-15T01:48:53.521Z,0.00
2022-11-15T01:49:53.494Z,0.00
2022-11-15T01:50:53.479Z,0.00
2022-11-15T01:51:53.488Z,0.00
2022-11-15T01:52:53.454Z,0.00
2022-11-15T01:53:53.443Z,0.00
2022-11-15T01:54:54.047Z,0.00
2022-11-15T01:55:53.435Z,0.00
2022-11-15T01:56:53.423Z,0.00
2022-11-15T01:57:53.402Z,0.00
2022-11-15T01:58:53.385Z,0.00
2022-11-15T01:59:53.405Z,0.00
2022-11-15T02:00:53.405Z,0.00
2022-11-15T02:01:53.366Z,0.00
2022-11-15T02:02:53.365Z,0.00
2022-11-15T02:03:53.332Z,0.00
2022-11-15T02:04:53.366Z,0.00
2022-11-15T02:05:53.334Z,0.00
2022-11-15T02:06:53.378Z,0.00
2022-11-15T02:07:53.299Z,0.00
2022-11-15T02:08:53.275Z,0.00
2022-11-15T02:09:53.275Z,0.00
2022-11-15T02:10:53.285Z,0.00
2022-11-15T02:11:53.273Z,0.00
2022-11-15T02:12:53.248Z,0.00
2022-11-15T02:13:53.232Z,0.00
2022-11-15T02:14:53.214Z,0.00
2022-11-15T02:15:53.242Z,0.00
2022-11-15T02:16:53.187Z,0.00
2022-11-15T02:17:53.184Z,0.00
2022-11-15T02:18:53.155Z,0.00
2022-11-15T02:19:53.184Z,0.00
2022-11-15T02:20:53.131Z,0.00
2022-11-15T02:21:53.193Z,0.00
2022-11-15T02:22:53.151Z,0.00
2022-11-15T02:23:53.113Z,0.00
2022-11-15T02:24:53.082Z,0.00
2022-11-15T02:25:53.255Z,0.00
2022-11-15T02:26:53.082Z,0.00
2022-11-15T02:27:53.061Z,0.00
2022-11-15T02:28:53.065Z,0.00
2022-11-15T02:29:53.335Z,0.00
2022-11-15T02:30:53.021Z,0.00
2022-11-15T02:31:53.027Z,0.00
2022-11-15T02:32:53.027Z,0.00
2022-11-15T02:33:53.036Z,0.00
2022-11-15T02:34:53.007Z,0.00
2022-11-15T02:35:52.966Z,0.00
2022-11-15T02:36:52.950Z,0.00
2022-11-15T02:37:53.003Z,0.00
2022-11-15T02:38:52.936Z,0.00
2022-11-15T02:39:52.964Z,0.00
2022-11-15T02:40:52.904Z,0.00
2022-11-15T02:41:52.906Z,0.00
2022-11-15T02:42:52.888Z,0.00
2022-11-15T02:43:52.874Z,0.00
2022-11-15T02:44:52.898Z,0.00
2022-11-15T02:45:52.909Z,0.00
2022-11-15T02:46:52.835Z,0.00
2022-11-15T02:47:52.832Z,0.00
2022-11-15T02:48:52.813Z,0.00
2022-11-15T02:49:53.033Z,0.00
2022-11-15T02:50:52.798Z,0.00
2022-11-15T02:51:52.863Z,0.00
2022-11-15T02:52:52.772Z,0.00
2022-11-15T02:53:52.763Z,0.00
2022-11-15T02:54:52.746Z,0.00
2022-11-15T02:55:52.723Z,0.00
2022-11-15T02:56:52.724Z,0.00
2022-11-15T02:57:52.758Z,0.00
2022-11-15T02:58:52.693Z,0.00
2022-11-15T02:59:52.686Z,0.00
2022-11-15T03:00:52.787Z,0.00
2022-11-15T03:01:52.745Z,0.00
2022-11-15T03:02:52.657Z,0.00
2022-11-15T03:03:52.663Z,0.00
2022-11-15T03:04:52.625Z,0.00
2022-11-15T03:05:52.621Z,0.00
2022-11-15T03:06:52.700Z,0.00
2022-11-15T03:07:53.991Z,0.00
2022-11-15T03:08:52.576Z,0.00
2022-11-15T03:09:52.593Z,0.00
2022-11-15T03:10:52.573Z,0.00
2022-11-15T03:11:52.543Z,0.00
2022-11-15T03:12:52.538Z,0.00
2022-11-15T03:13:52.532Z,0.00
2022-11-15T03:14:52.533Z,0.00
2022-11-15T03:15:52.537Z,0.00
2022-11-15T03:16:52.482Z,0.00
2022-11-15T03:17:52.482Z,0.00
2022-11-15T03:18:52.483Z,0.00
2022-11-15T03:19:52.463Z,0.00
2022-11-15T03:20:52.442Z,0.00
2022-11-15T03:21:52.489Z,0.00
2022-11-15T03:22:52.423Z,0.00
2022-11-15T03:23:52.410Z,0.00
2022-11-15T03:24:52.393Z,0.00
2022-11-15T03:25:52.404Z,0.00
2022-11-15T03:26:52.372Z,0.00
2022-11-15T03:27:52.413Z,0.00
2022-11-15T03:28:52.347Z,0.00
2022-11-15T03:29:52.342Z,0.00
2022-11-15T03:30:52.327Z,0.00
2022-11-15T03:31:52.314Z,0.00
2022-11-15T03:32:52.335Z,0.00
2022-11-15T03:33:52.334Z,0.00
2022-11-15T03:34:52.294Z,0.00
2022-11-15T03:35:52.275Z,0.00
2022-11-15T03:36:52.253Z,0.00
2022-11-15T03:37:52.326Z,0.00
2022-11-15T03:38:52.257Z,0.00
2022-11-15T03:39:52.276Z,0.00
2022-11-15T03:40:52.217Z,0.00
2022-11-15T03:41:52.202Z,0.00
2022-11-15T03:42:52.191Z,0.00
2022-11-15T03:43:52.224Z,0.00
2022-11-15T03:44:52.198Z,0.00
2022-11-15T03:45:52.164Z,0.00
2022-11-15T03:46:52.163Z,0.00
2022-11-15T03:47:52.124Z,0.00
2022-11-15T03:48:52.116Z,0.00
2022-11-15T03:49:52.124Z,0.00
2022-11-15T03:50:52.124Z,0.00
2022-11-15T03:51:52.093Z,0.00
2022-11-15T03:52:52.090Z,0.00
2022-11-15T03:53:52.075Z,0.00
2022-11-15T03:54:52.074Z,0.00
2022-11-15T03:55:52.073Z,0.00
2022-11-15T03:56:52.027Z,0.00
2022-11-15T03:57:52.023Z,0.00
2022-11-15T03:58:52.011Z,0.00
2022-11-15T03:59:52.016Z,0.00
2022-11-15T04:00:52.025Z,0.00
2022-11-15T04:01:51.994Z,0.00
2022-11-15T04:02:51.955Z,0.00
2022-11-15T04:03:52.014Z,0.00
2022-11-15T04:04:51.937Z,0.00
2022-11-15T04:05:51.969Z,0.00
2022-11-15T04:06:51.978Z,0.00
2022-11-15T04:07:51.905Z,0.00
2022-11-15T04:08:51.951Z,0.00
2022-11-15T04:09:51.887Z,0.00
2022-11-15T04:10:51.866Z,0.00
2022-11-15T04:11:51.867Z,0.00
2022-11-15T04:12:51.884Z,0.00
2022-11-15T04:13:51.860Z,0.00
2022-11-15T04:14:51.841Z,0.00
2022-11-15T04:15:51.815Z,0.00
2022-11-15T04:16:51.798Z,0.00
2022-11-15T04:17:51.815Z,0.00
2022-11-15T04:18:51.806Z,0.00
2022-11-15T04:19:51.794Z,0.00
2022-11-15T04:20:51.753Z,0.00
2022-11-15T04:21:51.764Z,0.00
2022-11-15T04:22:51.725Z,0.00
2022-11-15T04:23:51.724Z,0.00
2022-11-15T04:24:51.745Z,0.00
2022-11-15T04:25:51.705Z,0.00
2022-11-15T04:26:51.726Z,0.00
2022-11-15T04:27:51.697Z,0.00
2022-11-15T04:28:51.665Z,0.00
2022-11-15T04:29:51.666Z,0.00
2022-11-15T04:30:51.666Z,0.00
2022-11-15T04:31:51.637Z,0.00
2022-11-15T04:32:51.616Z,0.00
2022-11-15T04:33:51.664Z,0.00
2022-11-15T04:34:51.609Z,0.00
2022-11-15T04:35:51.578Z,0.00
2022-11-15T04:36:51.634Z,0.00
2022-11-15T04:37:51.554Z,0.00
2022-11-15T04:38:51.618Z,0.00
2022-11-15T04:39:51.538Z,0.00
2022-11-15T04:40:51.526Z,0.00
2022-11-15T04:41:51.552Z,0.00
2022-11-15T04:42:51.525Z,0.00
2022-11-15T04:43:51.486Z,0.00
2022-11-15T04:44:51.475Z,0.00
2022-11-15T04:45:51.468Z,0.00
2022-11-15T04:46:51.468Z,0.00
2022-11-15T04:47:51.533Z,0.00
2022-11-15T04:48:56.907Z,0.00
2022-11-15T04:49:52.414Z,0.00
2022-11-15T04:50:51.458Z,0.00
2022-11-15T04:51:51.400Z,0.00
2022-11-15T04:52:51.445Z,0.00
2022-11-15T04:53:51.413Z,0.00
2022-11-15T04:54:51.366Z,0.00
2022-11-15T04:55:51.392Z,0.00
2022-11-15T04:56:51.354Z,0.00
2022-11-15T04:57:51.335Z,0.00
2022-11-15T04:58:51.332Z,0.00
2022-11-15T04:59:51.326Z,0.00
2022-11-15T05:00:51.359Z,0.00
2022-11-15T05:01:51.275Z,0.00
2022-11-15T05:02:51.371Z,0.00
2022-11-15T05:03:51.265Z,0.00
2022-11-15T05:04:51.306Z,0.00
2022-11-15T05:05:51.255Z,0.00
2022-11-15T05:06:51.300Z,0.00
2022-11-15T05:07:51.268Z,0.00
2022-11-15T05:08:51.204Z,0.00
2022-11-15T05:09:51.273Z,0.00
2022-11-15T05:10:51.230Z,0.00
2022-11-15T05:11:51.177Z,0.00
2022-11-15T05:12:51.177Z,0.00
2022-11-15T05:13:51.143Z,0.00
2022-11-15T05:14:51.137Z,0.00
2022-11-15T05:15:51.114Z,0.00
2022-11-15T05:16:51.160Z,0.00
2022-11-15T05:17:51.104Z,0.00
2022-11-15T05:18:51.174Z,0.00
2022-11-15T05:19:51.078Z,0.00
2022-11-15T05:20:51.064Z,0.00
2022-11-15T05:21:51.045Z,0.00
2022-11-15T05:22:51.124Z,0.00
2022-11-15T05:23:51.037Z,0.00
2022-11-15T05:24:51.052Z,0.00
2022-11-15T05:25:51.007Z,0.00
2022-11-15T05:26:51.014Z,0.00
2022-11-15T05:27:50.985Z,0.00
2022-11-15T05:28:51.065Z,0.00
2022-11-15T05:29:50.965Z,0.00
2022-11-15T05:30:50.963Z,0.00
2022-11-15T05:31:50.983Z,0.00
2022-11-15T05:32:50.926Z,0.00
2022-11-15T05:33:50.917Z,0.00
2022-11-15T05:34:50.934Z,0.00
2022-11-15T05:35:50.956Z,0.00
2022-11-15T05:36:50.892Z,0.00
2022-11-15T05:37:50.960Z,0.00
2022-11-15T05:38:50.866Z,0.00
2022-11-15T05:39:50.870Z,0.00
2022-11-15T05:40:50.896Z,0.00
2022-11-15T05:41:50.823Z,0.00
2022-11-15T05:42:50.867Z,0.00
2022-11-15T05:43:50.806Z,0.00
2022-11-15T05:44:50.799Z,0.00
2022-11-15T05:45:50.776Z,0.00
2022-11-15T05:46:50.794Z,0.00
2022-11-15T05:47:50.759Z,0.00
2022-11-15T05:48:50.742Z,0.00
2022-11-15T05:49:50.777Z,0.00
2022-11-15T05:50:50.734Z,0.00
2022-11-15T05:51:50.710Z,0.00
2022-11-15T05:52:50.899Z,0.00
2022-11-15T05:53:50.698Z,0.00
2022-11-15T05:54:50.675Z,0.00
2022-11-15T05:55:50.665Z,0.00
2022-11-15T05:56:50.648Z,0.00
2022-11-15T05:57:50.746Z,0.00
2022-11-15T05:58:51.408Z,0.00
2022-11-15T05:59:50.620Z,0.00
2022-11-15T06:00:50.603Z,0.00
2022-11-15T06:01:50.635Z,0.00
2022-11-15T06:02:50.591Z,4.00
2022-11-15T06:03:50.595Z,4.00
2022-11-15T06:04:50.565Z,0.00
2022-11-15T06:05:50.545Z,4.00
2022-11-15T06:06:50.571Z,4.00
2022-11-15T06:07:50.531Z,4.00
2022-11-15T06:08:50.520Z,4.00
2022-11-15T06:09:50.524Z,8.00
2022-11-15T06:10:50.498Z,8.00
2022-11-15T06:11:50.491Z,8.00
2022-11-15T06:12:50.473Z,12.00
2022-11-15T06:13:50.466Z,12.00
2022-11-15T06:14:50.550Z,16.00
2022-11-15T06:15:50.497Z,20.00
2022-11-15T06:16:50.424Z,24.00
2022-11-15T06:17:50.465Z,24.00
2022-11-15T06:18:50.569Z,28.00
2022-11-15T06:19:50.495Z,36.00
2022-11-15T06:20:50.384Z,44.00
2022-11-15T06:21:50.384Z,48.00
2022-11-15T06:22:50.367Z,56.00
2022-11-15T06:23:50.395Z,64.00
2022-11-15T06:24:50.373Z,72.00
2022-11-15T06:25:50.353Z,84.00
2022-11-15T06:26:50.334Z,92.00
2022-11-15T06:27:50.452Z,104.00
2022-11-15T06:28:50.303Z,112.00
2022-11-15T06:29:50.298Z,124.00
2022-11-15T06:30:53.204Z,140.00
2022-11-15T06:31:50.366Z,152.00
2022-11-15T06:32:50.274Z,164.00
2022-11-15T06:33:50.364Z,176.00
2022-11-15T06:34:50.255Z,184.00
2022-11-15T06:35:50.289Z,196.00
2022-11-15T06:36:51.324Z,216.00
2022-11-15T06:37:50.207Z,240.00
2022-11-15T06:38:50.384Z,268.00
2022-11-15T06:39:50.189Z,292.00
2022-11-15T06:40:50.301Z,324.00
2022-11-15T06:41:50.137Z,352.00
2022-11-15T06:42:50.151Z,384.00
2022-11-15T06:43:50.127Z,408.00
2022-11-15T06:44:50.171Z,420.00
2022-11-15T06:45:50.125Z,432.00
2022-11-15T06:46:50.097Z,444.00
2022-11-15T06:47:50.078Z,436.00
2022-11-15T06:48:50.080Z,428.00
2022-11-15T06:49:50.083Z,440.00
2022-11-15T06:50:50.063Z,456.00
2022-11-15T06:51:50.042Z,440.00
2022-11-15T06:52:50.069Z,416.00
2022-11-15T06:53:50.012Z,368.00
2022-11-15T06:54:49.993Z,348.00
2022-11-15T06:55:54.873Z,324.00
2022-11-15T06:56:51.096Z,340.00
2022-11-15T06:57:49.968Z,324.00
2022-11-15T06:58:49.956Z,300.00
2022-11-15T06:59:49.954Z,312.00
2022-11-15T07:00:50.094Z,376.00
2022-11-15T07:01:49.997Z,460.00
2022-11-15T07:02:49.937Z,532.00
2022-11-15T07:03:49.954Z,584.00
2022-11-15T07:04:49.884Z,628.00
2022-11-15T07:05:49.875Z,684.00
2022-11-15T07:06:49.936Z,724.00
2022-11-15T07:07:49.884Z,764.00
2022-11-15T07:08:49.872Z,864.00
2022-11-15T07:09:49.831Z,944.00
2022-11-15T07:10:49.828Z,980.00
2022-11-15T07:11:49.871Z,964.00
2022-11-15T07:12:49.802Z,972.00
2022-11-15T07:13:49.796Z,1056.00
2022-11-15T07:14:49.783Z,1196.00
2022-11-15T07:15:49.768Z,1352.00
2022-11-15T07:16:49.747Z,1516.00
2022-11-15T07:17:49.742Z,1708.00
2022-11-15T07:18:49.734Z,1908.00
2022-11-15T07:19:49.781Z,2044.00
2022-11-15T07:20:49.704Z,2208.00
2022-11-15T07:21:49.693Z,2312.00
2022-11-15T07:22:50.735Z,2400.00
2022-11-15T07:23:49.669Z,2500.00
2022-11-15T07:24:49.662Z,2436.00
2022-11-15T07:25:49.690Z,2340.00
2022-11-15T07:26:49.635Z,2392.00
2022-11-15T07:27:49.635Z,2388.00
2022-11-15T07:28:49.615Z,2528.00
2022-11-15T07:29:49.623Z,2768.00
2022-11-15T07:30:49.833Z,3256.00
2022-11-15T07:31:49.844Z,3732.00
2022-11-15T07:32:49.574Z,3408.00
2022-11-15T07:33:49.596Z,3032.00
2022-11-15T07:34:49.558Z,2852.00
2022-11-15T07:35:49.562Z,2940.00
2022-11-15T07:36:49.768Z,3044.00
2022-11-15T07:37:49.495Z,3068.00
2022-11-15T07:38:49.493Z,3200.00
2022-11-15T07:39:49.478Z,3244.00
2022-11-15T07:40:49.466Z,3556.00
2022-11-15T07:41:49.456Z,3344.00
2022-11-15T07:42:49.825Z,2912.00
2022-11-15T07:43:49.445Z,2932.00
2022-11-15T07:44:49.443Z,2916.00
2022-11-15T07:45:50.258Z,2840.00
2022-11-15T07:46:49.402Z,3096.00
2022-11-15T07:47:49.421Z,3184.00
2022-11-15T07:48:49.420Z,3008.00
2022-11-15T07:49:49.363Z,3516.00
2022-11-15T07:50:49.363Z,4652.00
2022-11-15T07:51:49.347Z,4236.00
2022-11-15T07:52:49.327Z,3908.00
2022-11-15T07:53:49.336Z,3916.00
2022-11-15T07:54:49.322Z,3668.00
2022-11-15T07:55:49.293Z,3768.00
2022-11-15T07:56:49.313Z,3868.00
2022-11-15T07:57:49.284Z,4000.00
2022-11-15T07:58:49.255Z,3892.00
2022-11-15T07:59:49.264Z,4200.00
2022-11-15T08:00:49.258Z,4768.00
2022-11-15T08:01:49.305Z,4372.00
2022-11-15T08:02:49.333Z,4484.00
2022-11-15T08:03:49.212Z,5276.00
2022-11-15T08:04:49.240Z,5112.00
2022-11-15T08:05:49.366Z,5760.00
2022-11-15T08:06:49.240Z,6632.00
2022-11-15T08:07:50.973Z,7148.00
2022-11-15T08:08:49.185Z,7476.00
2022-11-15T08:09:49.138Z,6232.00
2022-11-15T08:10:49.185Z,5640.00
2022-11-15T08:11:49.194Z,5816.00
2022-11-15T08:12:49.197Z,7456.00
2022-11-15T08:13:49.090Z,9880.00
2022-11-15T08:14:49.083Z,17120.00
2022-11-15T08:15:53.399Z,14224.00
2022-11-15T08:16:50.094Z,10624.00
2022-11-15T08:17:49.067Z,11068.00
2022-11-15T08:18:49.051Z,11288.00
2022-11-15T08:19:49.048Z,10828.00
2022-11-15T08:20:49.014Z,11512.00
2022-11-15T08:21:48.996Z,12584.00
2022-11-15T08:22:49.117Z,11596.00
2022-11-15T08:23:49.181Z,19840.00
2022-11-15T08:24:48.986Z,11708.00
2022-11-15T08:25:48.948Z,11724.00
2022-11-15T08:26:49.061Z,10308.00
2022-11-15T08:27:48.966Z,11284.00
2022-11-15T08:28:48.930Z,9624.00
2022-11-15T08:29:48.917Z,8996.00
2022-11-15T08:30:48.906Z,8452.00
2022-11-15T08:31:48.887Z,7944.00
2022-11-15T08:32:48.878Z,7732.00
2022-11-15T08:33:48.885Z,7100.00
2022-11-15T08:34:48.847Z,6512.00
2022-11-15T08:35:48.858Z,6204.00
2022-11-15T08:36:48.838Z,6388.00
2022-11-15T08:37:48.820Z,6596.00
2022-11-15T08:38:48.812Z,6824.00
2022-11-15T08:39:48.805Z,6876.00
2022-11-15T08:40:48.786Z,6688.00
2022-11-15T08:41:48.781Z,6428.00
2022-11-15T08:42:48.756Z,6252.00
2022-11-15T08:43:48.743Z,5952.00
2022-11-15T08:44:48.725Z,5660.00
2022-11-15T08:45:48.749Z,5696.00
2022-11-15T08:46:48.707Z,6048.00
2022-11-15T08:47:54.019Z,6820.00
2022-11-15T08:48:49.687Z,7072.00
2022-11-15T08:49:48.680Z,7020.00
2022-11-15T08:50:48.666Z,6932.00
2022-11-15T08:51:48.679Z,7020.00
2022-11-15T08:52:48.647Z,7036.00
2022-11-15T08:53:48.741Z,7436.00
2022-11-15T08:54:48.623Z,7784.00
2022-11-15T08:55:48.618Z,7812.00
2022-11-15T08:56:48.605Z,7784.00
2022-11-15T08:57:48.608Z,7660.00
2022-11-15T08:58:49.352Z,7512.00
2022-11-15T08:59:48.705Z,7584.00
2022-11-15T09:00:48.550Z,7544.00
2022-11-15T09:01:48.611Z,7420.00
2022-11-15T09:02:48.608Z,7724.00
2022-11-15T09:03:48.525Z,8208.00
2022-11-15T09:04:48.497Z,8584.00
2022-11-15T09:05:48.517Z,8732.00
2022-11-15T09:06:48.503Z,9180.00
2022-11-15T09:07:48.470Z,9492.00
2022-11-15T09:08:56.903Z,9860.00
2022-11-15T09:09:49.469Z,9600.00
2022-11-15T09:10:48.444Z,8824.00
2022-11-15T09:11:48.451Z,7980.00
2022-11-15T09:12:48.428Z,7472.00
2022-11-15T09:13:48.411Z,7100.00
2022-11-15T09:14:48.419Z,7048.00
2022-11-15T09:15:48.384Z,7744.00
2022-11-15T09:16:48.370Z,8828.00
2022-11-15T09:17:48.359Z,10228.00
2022-11-15T09:18:48.339Z,11168.00
2022-11-15T09:19:48.379Z,10324.00
2022-11-15T09:20:48.360Z,9448.00
2022-11-15T09:21:48.341Z,8352.00
2022-11-15T09:22:48.301Z,7192.00
2022-11-15T09:23:48.287Z,6252.00
2022-11-15T09:24:48.336Z,6084.00
2022-11-15T09:25:48.308Z,6176.00
2022-11-15T09:26:48.250Z,6348.00
2022-11-15T09:27:48.259Z,7176.00
2022-11-15T09:28:48.258Z,8024.00
2022-11-15T09:29:48.235Z,8044.00
2022-11-15T09:30:48.210Z,8560.00
2022-11-15T09:31:48.211Z,8520.00
2022-11-15T09:32:48.191Z,8068.00
2022-11-15T09:33:48.171Z,7264.00
2022-11-15T09:34:48.165Z,6628.00
2022-11-15T09:35:48.150Z,5796.00
2022-11-15T09:36:48.182Z,4988.00
2022-11-15T09:37:52.211Z,4436.00
2022-11-15T09:38:49.108Z,4560.00
2022-11-15T09:39:48.101Z,3872.00
2022-11-15T09:40:48.099Z,3456.00
2022-11-15T09:41:48.079Z,3248.00
2022-11-15T09:42:48.089Z,3064.00
2022-11-15T09:43:48.060Z,3068.00
2022-11-15T09:44:48.060Z,3352.00
2022-11-15T09:45:48.077Z,3488.00
2022-11-15T09:46:48.071Z,3584.00
2022-11-15T09:47:48.011Z,3668.00
2022-11-15T09:48:48.030Z,4108.00
2022-11-15T09:49:47.990Z,4476.00
2022-11-15T09:50:48.012Z,5220.00
2022-11-15T09:51:48.077Z,6888.00
2022-11-15T09:52:47.940Z,7432.00
2022-11-15T09:54:30.262Z,6992.00
2022-11-15T09:54:53.811Z,6760.00
2022-11-15T09:55:48.957Z,6452.00
2022-11-15T09:56:47.910Z,6256.00
2022-11-15T09:57:47.901Z,6420.00
2022-11-15T09:58:47.891Z,6140.00
2022-11-15T09:59:47.900Z,6748.00
2022-11-15T10:00:48.472Z,7072.00
2022-11-15T10:01:47.986Z,7392.00
2022-11-15T10:02:47.842Z,7652.00
2022-11-15T10:03:47.831Z,7640.00
2022-11-15T10:04:47.832Z,7984.00
2022-11-15T10:05:47.833Z,8088.00
2022-11-15T10:06:47.811Z,8092.00
2022-11-15T10:07:47.780Z,8036.00
2022-11-15T10:08:47.784Z,8696.00
2022-11-15T10:09:47.762Z,9668.00
2022-11-15T10:10:47.751Z,10452.00
2022-11-15T10:11:47.751Z,11060.00
2022-11-15T10:12:47.721Z,11204.00
2022-11-15T10:13:47.718Z,10964.00
2022-11-15T10:14:53.200Z,10664.00
2022-11-15T10:15:48.732Z,10716.00
2022-11-15T10:16:47.702Z,10944.00
2022-11-15T10:17:47.671Z,11852.00
2022-11-15T10:18:47.659Z,11276.00
2022-11-15T10:19:47.642Z,11160.00
2022-11-15T10:20:47.652Z,10396.00
2022-11-15T10:21:47.632Z,9292.00
2022-11-15T10:22:47.635Z,8616.00
2022-11-15T10:23:47.597Z,8324.00
2022-11-15T10:24:47.583Z,8536.00
2022-11-15T10:25:47.574Z,8784.00
2022-11-15T10:26:47.565Z,8680.00
2022-11-15T10:27:47.604Z,8588.00
2022-11-15T10:28:47.542Z,8724.00
2022-11-15T10:29:47.553Z,9088.00
2022-11-15T10:30:47.512Z,10188.00
2022-11-15T10:31:47.502Z,11056.00
2022-11-15T10:32:47.555Z,11956.00
2022-11-15T10:33:47.483Z,12176.00
2022-11-15T10:34:47.466Z,11728.00
2022-11-15T10:35:47.464Z,10424.00
2022-11-15T10:36:50.264Z,9608.00
2022-11-15T10:37:47.433Z,9072.00
2022-11-15T10:38:47.435Z,8996.00
2022-11-15T10:39:47.428Z,8708.00
2022-11-15T10:40:47.434Z,8564.00
2022-11-15T10:41:47.399Z,8380.00
2022-11-15T10:42:47.378Z,8448.00
2022-11-15T10:43:47.384Z,8848.00
2022-11-15T10:44:47.353Z,8952.00
2022-11-15T10:45:47.344Z,9040.00
2022-11-15T10:46:47.860Z,8996.00
2022-11-15T10:47:47.342Z,9140.00
2022-11-15T10:48:47.308Z,8928.00
2022-11-15T10:49:47.347Z,8972.00
2022-11-15T10:50:47.276Z,9048.00
2022-11-15T10:51:47.327Z,8652.00
2022-11-15T10:52:47.254Z,8564.00
2022-11-15T10:53:47.247Z,8584.00
2022-11-15T10:54:47.233Z,8972.00
2022-11-15T10:55:47.262Z,9476.00
2022-11-15T10:56:47.236Z,9436.00
2022-11-15T10:57:47.209Z,9804.00
2022-11-15T10:58:47.187Z,10104.00
2022-11-15T10:59:47.193Z,9760.00
2022-11-15T11:00:47.197Z,9024.00
2022-11-15T11:01:47.220Z,8400.00
2022-11-15T11:02:47.167Z,7880.00
2022-11-15T11:03:47.146Z,8056.00
2022-11-15T11:04:47.126Z,8452.00
2022-11-15T11:05:47.125Z,8596.00
2022-11-15T11:06:47.143Z,8816.00
2022-11-15T11:07:47.086Z,8844.00
2022-11-15T11:08:47.307Z,8924.00
2022-11-15T11:09:47.076Z,9184.00
2022-11-15T11:10:52.230Z,9408.00
2022-11-15T11:11:48.136Z,9608.00
2022-11-15T11:12:47.040Z,9260.00
2022-11-15T11:13:47.030Z,8908.00
2022-11-15T11:14:46.999Z,8752.00
2022-11-15T11:15:47.008Z,8380.00
2022-11-15T11:16:46.976Z,8644.00
2022-11-15T11:17:46.986Z,8704.00
2022-11-15T11:18:46.955Z,8256.00
2022-11-15T11:19:46.948Z,7928.00
2022-11-15T11:20:46.933Z,7940.00
2022-11-15T11:21:46.930Z,8104.00
2022-11-15T11:22:47.015Z,8344.00
2022-11-15T11:23:46.904Z,8468.00
2022-11-15T11:24:46.895Z,8428.00
2022-11-15T11:25:46.875Z,8192.00
2022-11-15T11:26:46.865Z,7472.00
2022-11-15T11:27:46.864Z,6620.00
2022-11-15T11:28:46.866Z,6908.00
2022-11-15T11:29:46.846Z,6320.00
2022-11-15T11:30:46.817Z,6748.00
2022-11-15T11:31:46.807Z,6996.00
2022-11-15T11:32:49.279Z,7128.00
2022-11-15T11:33:46.795Z,7276.00
2022-11-15T11:34:46.800Z,7268.00
2022-11-15T11:35:46.769Z,7444.00
2022-11-15T11:36:46.746Z,7636.00
2022-11-15T11:37:46.738Z,7556.00
2022-11-15T11:38:46.738Z,7456.00
2022-11-15T11:39:46.719Z,7372.00
2022-11-15T11:40:46.740Z,7264.00
2022-11-15T11:41:46.690Z,6852.00
2022-11-15T11:42:46.692Z,6616.00
2022-11-15T11:43:46.668Z,6364.00
2022-11-15T11:44:46.665Z,6708.00
2022-11-15T11:45:47.415Z,6940.00
2022-11-15T11:46:46.648Z,7140.00
2022-11-15T11:47:46.633Z,7344.00
2022-11-15T11:48:46.614Z,7560.00
2022-11-15T11:49:46.605Z,7800.00
2022-11-15T11:50:46.588Z,8116.00
2022-11-15T11:51:46.606Z,8588.00
2022-11-15T11:52:46.563Z,9156.00
2022-11-15T11:53:46.666Z,9564.00
2022-11-15T11:54:46.536Z,9844.00
2022-11-15T11:55:46.539Z,10100.00
2022-11-15T11:56:46.520Z,10252.00
2022-11-15T11:57:46.529Z,10120.00
2022-11-15T11:58:46.491Z,9940.00
2022-11-15T11:59:46.489Z,9984.00
2022-11-15T12:00:46.489Z,10248.00
2022-11-15T12:01:46.567Z,10616.00
2022-11-15T12:02:46.644Z,11000.00
2022-11-15T12:03:46.500Z,11172.00
2022-11-15T12:04:46.435Z,11368.00
2022-11-15T12:05:46.410Z,11588.00
2022-11-15T12:06:46.479Z,11340.00
2022-11-15T12:07:46.399Z,10816.00
2022-11-15T12:08:46.431Z,9680.00
2022-11-15T12:09:46.391Z,9092.00
2022-11-15T12:10:46.361Z,8892.00
2022-11-15T12:11:46.349Z,9020.00
2022-11-15T12:12:46.341Z,9448.00
2022-11-15T12:13:46.332Z,9512.00
2022-11-15T12:14:46.340Z,9112.00
2022-11-15T12:15:46.310Z,8224.00
2022-11-15T12:16:46.281Z,8044.00
2022-11-15T12:17:46.293Z,7976.00
2022-11-15T12:18:46.270Z,8020.00
2022-11-15T12:19:46.270Z,8216.00
2022-11-15T12:20:46.301Z,8436.00
2022-11-15T12:21:46.296Z,8652.00
2022-11-15T12:22:46.224Z,8516.00
2022-11-15T12:23:46.214Z,8304.00
2022-11-15T12:24:46.213Z,8092.00
2022-11-15T12:25:46.205Z,7996.00
2022-11-15T12:26:46.233Z,8128.00
2022-11-15T12:27:46.172Z,8876.00
2022-11-15T12:29:05.776Z,8704.00
2022-11-15T12:29:47.151Z,8396.00
2022-11-15T12:30:46.131Z,8476.00
2022-11-15T12:31:46.123Z,8476.00
2022-11-15T12:32:46.143Z,9564.00
2022-11-15T12:33:46.103Z,9760.00
2022-11-15T12:34:46.107Z,8856.00
2022-11-15T12:35:46.101Z,8620.00
2022-11-15T12:36:46.083Z,7392.00
2022-11-15T12:37:46.052Z,6776.00
2022-11-15T12:38:46.096Z,6820.00
2022-11-15T12:39:46.022Z,6540.00
2022-11-15T12:40:46.014Z,6620.00